Wednesday, September 17, 2014
21:42 UTC
  |  Log In   |  Register Free
Airport Search:

Lawrence Smith Memorial Airport
(KLRY)

Lawrence Smith Memorial Airport Diagram
No Airport Diagram Available

FAA data valid effective July 24, 2014 until September 18, 2014 (unless otherwise noted).

 
 
 
 
 
 
 
 
 
 
 
 
 
 

Current Aviation Weather for Lawrence Smith Memorial Airport (KLRY)

METAR data is unavailable for LRY. The nearest METAR location is at KLXT (21 nm NW from LRY).

The most recent METAR observation for KLXT was updated at: 2116
METAR Summary (Translated METAR)
KLXT
172053Z AUTO 09004KT 10SM FEW012 OVC018 22/19 A2992 RMK AO2 SLP124 T02220189 56004
(21 nm NW from KLRY)
KOJC
172053Z 07006KT 10SM OVC019 23/19 A2990 RMK AO2 SLP118 T02280194 56008
(23.3 nm NW from KLRY)
TAF
No TAF information found within 50 nm of KLXT
  Airport Weather Conditions for KLRY

Current weather conditions are
not available for LRY


The nearest NOAA weather station
is at LXT, (21 nm NW from LRY)
  
 Current Weather at LXT
72° F
Overcast
East winds at 4.6 mph
LXT NOAA Radar

Pressure: 29.92 in
Humidity: 82%
Wind: East at 4.6 MPH (4 KT)
Dew Point: 66.0°F
Visibility: 10.00 mi


Airport Weather Forecast for KLRY

Translated METAR and TAF for KLXT
Translated METAR for KLXT (2136 UTC 17 September 2014)
found at http://aviationweather.gov/adds/metars/
 
METAR text: KLXT 172131Z AUTO 06004KT 10SM FEW009 OVC020 22/19 A2991 RMK AO2 T02220194
Conditions at: KLXT (LEES SUMMIT MUNI, MO, US) observed 2131 UTC 17 September 2014
Temperature: 22.2°C (72°F)
Dewpoint: 19.4°C (67°F) [RH = 84%]
Pressure (altimeter): 29.91 inches Hg (1013.0 mb)
Winds: from the ENE (60 degrees) at 5 MPH (4 knots; 2.1 m/s)
Visibility: 10 or more miles (16+ km)
Ceiling: 2000 feet AGL
Clouds: few clouds at 900 feet AGL
overcast cloud deck at 2000 feet AGL
Weather: automated observation with no human augmentation;
there may or may not be significant weather present at this time
Translated TAF for KLXT

There is no translated TAF available for this airport

Find All Airport Services Find A Hotel Find A Rental Car Find A Golf Course Find A Restaurant $100 Hamburger



FBO's on the Field
FBO Company Facility Photos Services Transportation Aviation Fuel Prices: Prices include tax
Catering Weather Repair Courtesy Rental Type 100LL JetA JetA+ MOGAS 8087
 
City of Harrisonville

This FBO has not yet been rated
FS:Phillips66
Last Updated: Sep-10
Login to update fuel prices
SS:
Contact City of HarrisonvilleMore FBO Information
 
Add another FBO Facility Photos Catering Weather Repair Courtesy Rental Type 100LL JetA JetA+ MOGAS 8087
Services Transportation Aviation Fuel Prices: Prices include tax


model-print
model-print
model-print
model-print